Augusta Regional At Bush Field Augusta US
ICAO: KAGS
IATA: AGS
Category: Large
Scheduled Services: Yes

Elevation: 144 ft
TransAlt. 18000 ft.

Airport Communications:
APP/DEP:119.15
ATIS:132.75
CTAF:118.7
GND:121.9
TWR:118.7
UNICOM:122.95

KAGS Zoom In..

If Map Doesn't Load, Click Here

Runways:

(A) RW 08 length 6002 ft width 75 ft
---- / hdg 82

(B) RW 17 length 8001 ft width 150 ft
ILS 111.75 / hdg 172

(C) RW 26 length 6002 ft width 75 ft
---- / hdg 262

(D) RW 35 length 8001 ft width 150 ft
ILS 110.50 / hdg 352

Location; KAGS
Day. 24 / Time. 04.53 Zulu
* Altimeter: 30.08
* Temperature: 22° c. 71.6°f.
* Wind from: 000° Speed 00 kn.
Dewpoint: 21° c.
Visibility: 10 Statute Miles.
Clouds: Clear (automated report).

KAGS 240453Z AUTO 00000KT 10SM CLR 22/21 A3008 RMK AO2 SLP185 T02170206 403280183 $


Wind - Calm.

 
 
jpsmedia.com for Web Design worldairports.se 2018   terms of use